createdAt,value
2022-08-30T00:05:45.255Z,6.10
2022-08-30T00:16:15.289Z,7.70
2022-08-30T00:26:44.859Z,14.30
2022-08-30T00:37:14.243Z,9.30
2022-08-30T00:47:43.363Z,21.90
2022-08-30T00:58:20.307Z,7.30
2022-08-30T01:08:50.086Z,6.50
2022-08-30T01:19:31.549Z,6.80
2022-08-30T01:30:00.825Z,5.50
2022-08-30T01:40:30.067Z,8.70
2022-08-30T01:51:00.140Z,7.00
2022-08-30T02:01:32.556Z,6.60
2022-08-30T02:12:01.942Z,10.40
2022-08-30T02:22:30.955Z,9.60
2022-08-30T02:33:00.073Z,5.60
2022-08-30T02:43:29.344Z,7.50
2022-08-30T02:53:58.466Z,5.60
2022-08-30T03:04:27.867Z,8.90
2022-08-30T03:14:56.902Z,6.80
2022-08-30T03:25:26.896Z,4.80
2022-08-30T03:35:56.065Z,8.40
2022-08-30T03:46:25.048Z,8.00
2022-08-30T03:56:57.903Z,6.10
2022-08-30T04:07:26.973Z,5.70
2022-08-30T04:17:56.142Z,8.70
2022-08-30T04:28:25.346Z,6.40
2022-08-30T04:38:54.409Z,6.10
2022-08-30T04:49:23.560Z,6.40
2022-08-30T04:59:52.682Z,6.10
2022-08-30T05:10:21.855Z,5.60
2022-08-30T05:20:51.076Z,6.50
2022-08-30T05:31:23.556Z,8.20
2022-08-30T05:41:52.650Z,6.40
2022-08-30T05:52:23.480Z,9.20
2022-08-30T06:02:56.449Z,8.00
2022-08-30T06:13:25.767Z,8.90
2022-08-30T06:23:55.412Z,12.00
2022-08-30T06:34:24.832Z,12.20
2022-08-30T06:44:56.950Z,12.80
2022-08-30T06:55:26.629Z,12.40
2022-08-30T07:05:57.153Z,12.90
2022-08-30T07:16:26.502Z,11.80
2022-08-30T07:26:55.880Z,11.10
2022-08-30T07:37:24.992Z,10.90
2022-08-30T07:47:54.106Z,12.70
2022-08-30T07:58:23.410Z,8.80
2022-08-30T08:08:54.297Z,7.70
2022-08-30T08:19:23.980Z,7.90
2022-08-30T08:29:53.144Z,9.10
2022-08-30T08:40:23.703Z,9.90
2022-08-30T08:51:06.677Z,8.40
2022-08-30T09:01:36.260Z,9.20
2022-08-30T09:12:06.933Z,9.70
2022-08-30T09:22:40.581Z,9.20
2022-08-30T09:33:22.186Z,10.90
2022-08-30T09:44:08.189Z,8.20
2022-08-30T09:54:44.108Z,6.00
2022-08-30T10:05:22.154Z,6.70
2022-08-30T10:15:57.741Z,7.20
2022-08-30T10:26:35.359Z,6.20
2022-08-30T10:37:10.336Z,7.00
2022-08-30T10:47:46.618Z,7.10
2022-08-30T10:58:17.322Z,5.80
2022-08-30T11:09:14.251Z,5.20
2022-08-30T11:19:44.820Z,6.00
2022-08-30T11:31:05.463Z,7.60
2022-08-30T11:52:48.796Z,4.10
2022-08-30T12:03:35.290Z,4.50
2022-08-30T12:14:09.296Z,6.60
2022-08-30T12:24:44.106Z,4.20
2022-08-30T12:35:23.074Z,3.80
2022-08-30T12:45:53.646Z,2.90
2022-08-30T12:56:35.112Z,2.90
2022-08-30T13:07:12.449Z,4.90
2022-08-30T13:17:47.613Z,4.90
2022-08-30T13:28:16.902Z,2.50
2022-08-30T13:38:46.637Z,3.60
2022-08-30T14:00:18.332Z,4.90
2022-08-30T14:10:47.763Z,3.80
2022-08-30T14:21:16.982Z,3.40
2022-08-30T14:31:51.108Z,4.90
2022-08-30T14:42:23.457Z,3.90
2022-08-30T14:52:52.760Z,2.80
2022-08-30T15:03:21.869Z,3.20
2022-08-30T15:13:53.013Z,3.10
2022-08-30T15:24:24.838Z,3.70
2022-08-30T15:45:26.093Z,2.40
2022-08-30T15:55:55.808Z,3.00
2022-08-30T16:06:28.490Z,2.50
2022-08-30T16:16:57.722Z,2.50
2022-08-30T16:27:27.771Z,2.60
2022-08-30T16:37:56.973Z,2.60
2022-08-30T16:48:26.113Z,3.30
2022-08-30T16:59:01.838Z,5.10
2022-08-30T17:09:31.590Z,4.70
2022-08-30T17:20:00.851Z,3.90
2022-08-30T17:30:29.976Z,5.60
2022-08-30T17:41:05.643Z,4.60
2022-08-30T17:51:37.227Z,5.60
2022-08-30T18:02:11.012Z,5.70
2022-08-30T18:12:40.587Z,6.60
2022-08-30T18:23:11.531Z,7.70
2022-08-30T18:33:41.624Z,6.00
2022-08-30T18:44:27.336Z,4.80
2022-08-30T18:54:57.695Z,6.00
2022-08-30T19:05:28.940Z,5.70
2022-08-30T19:15:59.055Z,5.70
2022-08-30T19:26:29.526Z,7.00
2022-08-30T19:36:59.267Z,5.80
2022-08-30T19:47:28.579Z,6.50
2022-08-30T19:57:58.986Z,7.00
2022-08-30T20:08:28.723Z,4.60
2022-08-30T20:18:57.756Z,5.20
2022-08-30T20:29:26.870Z,6.90
2022-08-30T20:39:59.306Z,6.50
2022-08-30T20:50:28.450Z,5.40
2022-08-30T21:00:59.056Z,5.20
2022-08-30T21:11:28.179Z,5.40
2022-08-30T21:21:57.273Z,6.50
2022-08-30T21:32:26.397Z,6.80
2022-08-30T21:42:56.260Z,6.50
2022-08-30T21:53:25.376Z,7.10
2022-08-30T22:03:56.379Z,7.70
2022-08-30T22:14:26.508Z,6.90
2022-08-30T22:24:56.067Z,7.90
2022-08-30T22:35:25.573Z,5.70
2022-08-30T22:45:54.828Z,7.30
2022-08-30T22:56:26.587Z,7.40
2022-08-30T23:06:55.647Z,7.80
2022-08-30T23:17:25.223Z,7.70
2022-08-30T23:28:15.043Z,6.90
2022-08-30T23:39:07.272Z,8.70
2022-08-30T23:49:54.118Z,4.50
